Time;durP1;ratioP1;P1;durP2;ratioP2;P2;SDS_P1;SDS_P2;PMS_P1;PMS_P2;Temp;Humidity;BMP_temperature;BMP_pressure;BME280_temperature;BME280_humidity;BME280_pressure;Samples;Min_cycle;Max_cycle;Signal;HPM_P1;HPM_P2
2024/02/04 00:00:29;;;;;;;10.10;3.00;;;7.90;99.90;;;;;;5145739;27;20042;-62
2024/02/04 00:02:55;;;;;;;13.70;2.55;;;7.70;99.90;;;;;;5144249;27;20121;-61
2024/02/04 00:05:21;;;;;;;15.27;2.65;;;7.70;99.90;;;;;;5141815;27;20666;-62
2024/02/04 00:07:47;;;;;;;19.40;3.17;;;7.70;99.90;;;;;;5141218;27;20423;-61
2024/02/04 00:10:15;;;;;;;9.85;2.53;;;7.60;99.90;;;;;;5142664;27;20038;-61
2024/02/04 00:12:41;;;;;;;16.33;3.07;;;7.70;99.90;;;;;;5144259;27;20469;-61
2024/02/04 00:15:07;;;;;;;15.27;2.83;;;7.60;99.90;;;;;;5143029;27;20034;-61
2024/02/04 00:17:34;;;;;;;8.57;2.65;;;7.60;99.90;;;;;;5138258;27;20186;-61
2024/02/04 00:20:05;;;;;;;14.90;3.05;;;7.60;99.90;;;;;;5138245;27;20034;-61
2024/02/04 00:22:34;;;;;;;15.07;3.28;;;7.50;99.90;;;;;;5141991;27;20046;-61
2024/02/04 00:25:10;;;;;;;11.55;3.00;;;7.50;99.90;;;;;;5142160;27;20046;-62
2024/02/04 00:27:36;;;;;;;14.13;2.75;;;7.40;99.90;;;;;;5138645;27;20745;-62
2024/02/04 00:30:01;;;;;;;10.15;2.80;;;7.40;99.90;;;;;;5123302;27;20137;-61
2024/02/04 00:32:27;;;;;;;14.85;2.63;;;7.40;99.90;;;;;;5143117;27;20045;-61
2024/02/04 00:34:53;;;;;;;13.63;2.70;;;7.40;99.90;;;;;;5136969;27;20042;-61
2024/02/04 00:37:19;;;;;;;15.02;2.47;;;7.40;99.90;;;;;;5133897;27;20035;-61
2024/02/04 00:39:45;;;;;;;10.60;2.63;;;7.30;99.90;;;;;;5122657;27;20041;-61
2024/02/04 00:42:11;;;;;;;12.65;2.67;;;7.30;99.90;;;;;;5144374;27;20129;-61
2024/02/04 00:44:37;;;;;;;10.18;2.95;;;7.20;99.90;;;;;;5146038;27;20125;-61
2024/02/04 00:47:03;;;;;;;19.98;3.63;;;7.20;99.90;;;;;;5147385;27;20039;-61
2024/02/04 00:49:29;;;;;;;8.95;2.25;;;7.20;99.90;;;;;;5146873;27;20565;-61
2024/02/04 00:51:55;;;;;;;12.98;3.22;;;7.20;99.90;;;;;;5139067;27;20056;-62
2024/02/04 00:54:21;;;;;;;12.73;3.15;;;7.10;99.90;;;;;;5144073;27;20073;-61
2024/02/04 00:56:46;;;;;;;22.17;4.18;;;7.10;99.90;;;;;;5148218;27;20034;-61
2024/02/04 00:59:12;;;;;;;15.38;3.20;;;7.10;99.90;;;;;;5123461;27;20039;-62
2024/02/04 01:01:38;;;;;;;14.10;3.33;;;7.10;99.90;;;;;;5146333;27;20045;-62
2024/02/04 01:04:04;;;;;;;8.77;2.60;;;7.10;99.90;;;;;;5141760;27;20030;-62
2024/02/04 01:06:30;;;;;;;15.57;3.17;;;7.00;99.90;;;;;;5147880;27;20397;-61
2024/02/04 01:08:59;;;;;;;14.60;3.20;;;6.90;99.90;;;;;;5145779;27;20094;-61
2024/02/04 01:11:24;;;;;;;19.30;2.92;;;7.00;99.90;;;;;;5128818;27;20069;-62
2024/02/04 01:13:50;;;;;;;13.93;2.63;;;6.90;99.90;;;;;;5142644;27;20038;-62
2024/02/04 01:16:16;;;;;;;15.73;2.70;;;6.90;99.90;;;;;;5138471;27;20134;-62
2024/02/04 01:18:43;;;;;;;19.92;3.03;;;6.90;99.90;;;;;;5138862;27;20154;-62
2024/02/04 01:21:09;;;;;;;13.85;3.47;;;6.90;99.90;;;;;;5138765;27;20562;-62
2024/02/04 01:23:35;;;;;;;16.30;2.58;;;6.90;99.90;;;;;;5140790;27;20043;-61
2024/02/04 01:26:00;;;;;;;11.52;2.30;;;7.00;99.90;;;;;;5143172;27;20035;-62
2024/02/04 01:28:26;;;;;;;20.27;2.92;;;6.90;99.90;;;;;;5146260;27;20049;-62
2024/02/04 01:30:52;;;;;;;13.52;2.72;;;6.80;99.90;;;;;;5139165;27;20042;-62
2024/02/04 01:33:18;;;;;;;22.73;3.42;;;6.90;99.90;;;;;;5140710;27;20046;-62
2024/02/04 01:35:43;;;;;;;13.68;3.38;;;6.90;99.90;;;;;;5142879;27;20103;-61
2024/02/04 01:38:09;;;;;;;18.70;2.50;;;6.80;99.90;;;;;;5142968;27;20094;-63
2024/02/04 01:40:35;;;;;;;16.50;3.00;;;6.80;99.90;;;;;;5144330;27;20075;-62
2024/02/04 01:43:01;;;;;;;21.75;3.38;;;6.80;99.90;;;;;;5138465;27;20030;-62
2024/02/04 01:45:27;;;;;;;9.75;1.92;;;6.80;99.90;;;;;;5143587;27;20098;-62
2024/02/04 01:47:54;;;;;;;14.38;2.95;;;6.90;99.90;;;;;;5146988;27;20034;-61
2024/02/04 01:50:20;;;;;;;17.77;2.90;;;6.80;99.90;;;;;;5146526;27;20495;-62
2024/02/04 01:52:47;;;;;;;13.50;2.40;;;6.80;99.90;;;;;;5136828;27;20045;-61
2024/02/04 01:55:13;;;;;;;13.05;2.20;;;6.80;99.90;;;;;;5123180;27;20027;-62
2024/02/04 01:57:40;;;;;;;19.52;2.97;;;6.80;99.90;;;;;;5143011;27;20407;-62
2024/02/04 02:00:09;;;;;;;15.95;3.58;;;6.80;99.90;;;;;;5146451;27;20494;-62
2024/02/04 02:02:41;;;;;;;7.60;2.20;;;6.80;99.90;;;;;;5144637;27;20047;-62
2024/02/04 02:05:08;;;;;;;22.55;2.97;;;6.80;99.90;;;;;;5140553;27;20043;-61
2024/02/04 02:07:34;;;;;;;10.57;2.22;;;6.80;99.90;;;;;;5147448;27;20491;-62
2024/02/04 02:10:00;;;;;;;16.80;2.75;;;6.80;99.90;;;;;;5143969;27;20173;-62
2024/02/04 02:12:30;;;;;;;20.52;3.50;;;6.70;99.90;;;;;;5135940;27;20066;-61
2024/02/04 02:15:15;;;;;;;17.88;2.75;;;6.70;99.90;;;;;;5141646;27;20035;-62
2024/02/04 02:17:55;;;;;;;9.82;2.00;;;6.60;99.90;;;;;;5122079;27;20456;-62
2024/02/04 02:20:32;;;;;;;11.77;2.17;;;6.70;99.90;;;;;;5139802;27;20035;-62
2024/02/04 02:23:07;;;;;;;21.35;2.50;;;6.60;99.90;;;;;;5133872;27;20171;-61
2024/02/04 02:25:35;;;;;;;18.05;3.03;;;6.60;99.90;;;;;;5143522;27;20038;-61
2024/02/04 02:28:01;;;;;;;17.52;2.60;;;6.60;99.90;;;;;;5144950;27;20080;-62
2024/02/04 02:30:27;;;;;;;23.88;3.67;;;6.60;99.90;;;;;;5139468;27;20126;-62
2024/02/04 02:32:53;;;;;;;16.75;3.63;;;6.60;99.90;;;;;;5141985;27;20031;-61
2024/02/04 02:35:19;;;;;;;18.27;2.55;;;6.60;99.90;;;;;;5142688;27;20038;-62
2024/02/04 02:37:54;;;;;;;15.10;2.95;;;6.60;99.90;;;;;;5146973;27;20498;-62
2024/02/04 02:40:39;;;;;;;12.13;2.60;;;6.60;99.90;;;;;;5145469;27;20031;-61
2024/02/04 02:43:06;;;;;;;18.83;3.33;;;6.70;99.90;;;;;;5142482;27;20673;-62
2024/02/04 02:45:33;;;;;;;13.45;2.53;;;6.70;99.90;;;;;;5142099;27;20521;-61
2024/02/04 02:48:00;;;;;;;20.27;2.47;;;6.60;99.90;;;;;;5144230;27;20503;-62
2024/02/04 02:50:27;;;;;;;25.33;3.80;;;6.60;99.90;;;;;;5144771;27;20579;-61
2024/02/04 02:52:53;;;;;;;24.13;3.55;;;6.60;99.90;;;;;;5146524;27;20070;-62
2024/02/04 02:55:18;;;;;;;13.95;2.53;;;6.60;99.90;;;;;;5124833;27;20090;-62
2024/02/04 02:57:44;;;;;;;16.23;2.42;;;6.60;99.90;;;;;;5146689;27;20077;-61
2024/02/04 03:00:10;;;;;;;15.65;2.80;;;6.70;99.90;;;;;;5143211;27;20396;-62
2024/02/04 03:02:36;;;;;;;23.75;2.83;;;6.60;99.90;;;;;;5145675;27;20513;-62
2024/02/04 03:05:02;;;;;;;19.52;3.13;;;6.60;99.90;;;;;;5141930;27;20078;-62
2024/02/04 03:07:27;;;;;;;19.33;3.80;;;6.60;99.90;;;;;;5139888;27;20134;-62
2024/02/04 03:09:54;;;;;;;13.57;2.75;;;6.60;99.90;;;;;;5140011;27;20092;-62
2024/02/04 03:12:20;;;;;;;11.07;2.53;;;6.60;99.90;;;;;;5143532;27;20430;-62
2024/02/04 03:14:46;;;;;;;15.43;2.67;;;6.60;99.90;;;;;;5142078;27;20035;-62
2024/02/04 03:17:12;;;;;;;15.25;3.22;;;6.70;99.90;;;;;;5138367;27;20562;-61
2024/02/04 03:19:38;;;;;;;18.15;3.00;;;6.60;99.90;;;;;;5144981;27;20060;-62
2024/02/04 03:22:03;;;;;;;13.77;2.78;;;6.60;99.90;;;;;;5137215;27;20039;-62
2024/02/04 03:24:29;;;;;;;18.67;3.00;;;6.70;99.90;;;;;;5145132;27;20048;-61
2024/02/04 03:26:55;;;;;;;15.63;3.38;;;6.60;99.90;;;;;;5136583;27;20308;-61
2024/02/04 03:29:21;;;;;;;18.70;3.05;;;6.70;99.90;;;;;;5131539;27;20241;-62
2024/02/04 03:31:46;;;;;;;18.73;3.95;;;6.60;99.90;;;;;;5143763;27;20767;-62
2024/02/04 03:34:12;;;;;;;15.38;2.40;;;6.60;99.90;;;;;;5137216;27;20087;-62
2024/02/04 03:36:41;;;;;;;13.27;3.03;;;6.60;99.90;;;;;;5142640;27;20042;-62
2024/02/04 03:39:06;;;;;;;18.17;3.58;;;6.60;99.90;;;;;;5136951;27;20724;-62
2024/02/04 03:41:32;;;;;;;21.08;3.15;;;6.70;99.90;;;;;;5145256;27;20126;-61
2024/02/04 03:43:58;;;;;;;25.80;3.67;;;6.70;99.90;;;;;;5143403;27;20113;-62
2024/02/04 03:46:23;;;;;;;27.20;3.75;;;6.70;99.90;;;;;;5143279;27;20402;-62
2024/02/04 03:48:50;;;;;;;21.25;3.67;;;6.70;99.90;;;;;;5137764;27;20039;-62
2024/02/04 03:51:20;;;;;;;17.17;2.80;;;6.80;99.90;;;;;;5143764;27;20045;-62
2024/02/04 03:53:45;;;;;;;;;;;6.80;99.90;;;;;;5136105;27;20062;-62
2024/02/04 03:56:11;;;;;;;18.40;3.13;;;6.80;99.90;;;;;;5138443;27;19923;-62
2024/02/04 03:58:37;;;;;;;18.77;2.67;;;6.80;99.90;;;;;;5136914;27;20038;-63
2024/02/04 04:01:03;;;;;;;20.20;3.58;;;6.80;99.90;;;;;;5136714;27;20072;-62
2024/02/04 04:03:28;;;;;;;13.90;2.75;;;6.90;99.90;;;;;;5138938;27;20054;-62
2024/02/04 04:05:54;;;;;;;21.23;3.70;;;6.90;99.90;;;;;;5138187;27;20066;-61
2024/02/04 04:08:20;;;;;;;20.38;3.03;;;6.90;99.90;;;;;;5141111;27;20049;-62
2024/02/04 04:10:46;;;;;;;17.50;3.17;;;6.90;99.90;;;;;;5127963;27;20195;-63
2024/02/04 04:13:12;;;;;;;14.05;2.83;;;7.00;99.90;;;;;;5141387;27;20042;-62
2024/02/04 04:15:39;;;;;;;19.85;3.38;;;7.00;99.90;;;;;;5142892;27;20596;-62
2024/02/04 04:18:05;;;;;;;14.80;3.22;;;6.90;99.90;;;;;;5139403;27;20413;-62
2024/02/04 04:20:30;;;;;;;20.05;3.38;;;6.90;99.90;;;;;;5141405;27;20440;-62
2024/02/04 04:22:56;;;;;;;20.83;3.25;;;6.90;99.90;;;;;;5138307;27;20043;-62
2024/02/04 04:25:22;;;;;;;15.95;2.78;;;6.90;99.90;;;;;;5139324;27;20086;-62
2024/02/04 04:27:48;;;;;;;25.42;4.00;;;7.00;99.90;;;;;;5140552;27;20118;-62
2024/02/04 04:30:14;;;;;;;17.08;3.78;;;7.00;99.90;;;;;;5142252;27;20123;-62
2024/02/04 04:32:39;;;;;;;25.15;3.63;;;7.00;99.90;;;;;;5133462;27;20038;-62
2024/02/04 04:35:05;;;;;;;18.90;3.28;;;7.00;99.90;;;;;;5134998;27;20030;-62
2024/02/04 04:37:31;;;;;;;19.50;3.05;;;7.00;99.90;;;;;;5140984;27;20090;-62
2024/02/04 04:39:57;;;;;;;15.10;3.58;;;7.10;99.90;;;;;;5142861;27;20039;-61
2024/02/04 04:42:23;;;;;;;24.98;3.38;;;7.10;99.90;;;;;;5143806;27;20082;-62
2024/02/04 04:44:49;;;;;;;19.30;3.33;;;7.00;99.90;;;;;;5145586;27;20034;-62
2024/02/04 04:47:15;;;;;;;17.13;3.42;;;7.10;99.90;;;;;;5142726;27;20194;-61
2024/02/04 04:49:41;;;;;;;23.52;4.38;;;7.10;99.90;;;;;;5145849;27;20127;-62
2024/02/04 04:52:08;;;;;;;24.90;4.78;;;7.10;99.90;;;;;;5141890;27;20838;-62
2024/02/04 04:54:34;;;;;;;26.25;3.97;;;7.20;99.90;;;;;;5133072;27;20042;-62
2024/02/04 04:56:59;;;;;;;28.05;3.90;;;7.20;99.90;;;;;;5139904;27;20134;-61
2024/02/04 04:59:25;;;;;;;17.73;3.60;;;7.10;99.90;;;;;;5133905;27;20043;-62
2024/02/04 05:01:51;;;;;;;17.77;2.85;;;7.20;99.90;;;;;;5143394;27;20037;-62
2024/02/04 05:04:21;;;;;;;12.75;3.53;;;7.10;99.90;;;;;;5144410;27;20429;-62
2024/02/04 05:06:46;;;;;;;21.58;3.40;;;7.10;99.90;;;;;;5139320;27;20070;-62
2024/02/04 05:09:12;;;;;;;20.02;4.18;;;7.10;99.90;;;;;;5122035;27;20035;-62
2024/02/04 05:11:38;;;;;;;16.63;2.72;;;7.20;99.90;;;;;;5137893;27;20038;-62
2024/02/04 05:14:03;;;;;;;18.77;2.90;;;7.10;99.90;;;;;;5137486;27;20038;-62
2024/02/04 05:16:30;;;;;;;21.90;3.33;;;7.20;99.90;;;;;;5141127;27;20038;-62
2024/02/04 05:18:56;;;;;;;17.75;3.05;;;7.20;99.90;;;;;;5123535;27;20733;-62
2024/02/04 05:21:22;;;;;;;18.63;4.45;;;7.20;99.90;;;;;;5127516;27;20031;-62
2024/02/04 05:23:47;;;;;;;15.20;2.60;;;7.20;99.90;;;;;;5142292;27;20114;-62
2024/02/04 05:26:13;;;;;;;15.43;2.90;;;7.20;99.90;;;;;;5138905;27;20091;-63
2024/02/04 05:28:39;;;;;;;16.92;3.10;;;7.30;99.90;;;;;;5138993;27;20091;-62
2024/02/04 05:31:04;;;;;;;26.13;4.30;;;7.20;99.90;;;;;;5142575;27;20038;-62
2024/02/04 05:33:30;;;;;;;18.80;3.15;;;7.20;99.90;;;;;;5142960;27;20042;-62
2024/02/04 05:35:56;;;;;;;20.77;3.72;;;7.30;99.90;;;;;;5133661;27;20034;-62
2024/02/04 05:38:22;;;;;;;21.70;3.30;;;7.30;99.90;;;;;;5130333;27;20122;-62
2024/02/04 05:40:47;;;;;;;16.80;3.42;;;7.30;99.90;;;;;;5140850;27;20685;-62
2024/02/04 05:43:13;;;;;;;18.80;3.53;;;7.30;99.90;;;;;;5144280;27;20066;-62
2024/02/04 05:45:42;;;;;;;13.57;2.53;;;7.30;99.90;;;;;;5145140;27;20100;-61
2024/02/04 05:48:09;;;;;;;15.75;3.47;;;7.30;99.90;;;;;;5128535;27;20030;-62
2024/02/04 05:50:35;;;;;;;24.90;3.60;;;7.30;99.90;;;;;;5142546;27;20501;-62
2024/02/04 05:53:02;;;;;;;21.73;3.42;;;7.20;99.90;;;;;;5125391;27;20039;-62
2024/02/04 05:55:29;;;;;;;16.52;3.45;;;7.30;99.90;;;;;;5143777;27;20039;-62
2024/02/04 05:57:54;;;;;;;21.70;3.67;;;7.20;99.90;;;;;;5141051;27;20069;-62
2024/02/04 06:00:20;;;;;;;26.15;3.65;;;7.30;99.90;;;;;;5145994;27;20027;-62
2024/02/04 06:02:46;;;;;;;13.55;2.90;;;7.30;99.90;;;;;;5142155;27;20038;-62
2024/02/04 06:05:14;;;;;;;22.90;3.38;;;7.30;99.90;;;;;;5137474;27;20095;-62
2024/02/04 06:07:42;;;;;;;22.02;3.15;;;7.40;99.90;;;;;;5135446;27;20099;-62
2024/02/04 06:10:10;;;;;;;15.93;2.95;;;7.40;99.90;;;;;;5137925;27;20069;-62
2024/02/04 06:12:37;;;;;;;27.20;4.65;;;7.40;99.90;;;;;;5132806;27;20130;-62
2024/02/04 06:15:04;;;;;;;13.45;2.67;;;7.40;99.90;;;;;;5143220;27;20031;-62
2024/02/04 06:17:29;;;;;;;19.90;2.95;;;7.40;99.90;;;;;;5132659;27;20039;-62
2024/02/04 06:19:56;;;;;;;25.02;3.70;;;7.40;99.90;;;;;;5140415;27;20159;-62
2024/02/04 06:22:22;;;;;;;24.33;3.30;;;7.30;99.90;;;;;;5141851;27;20043;-62
2024/02/04 06:24:49;;;;;;;28.98;3.90;;;7.40;99.90;;;;;;5139808;27;20756;-62
2024/02/04 06:27:15;;;;;;;19.23;4.05;;;7.40;99.90;;;;;;5141024;27;20042;-62
2024/02/04 06:29:41;;;;;;;20.10;3.10;;;7.40;99.90;;;;;;5141362;27;20047;-62
2024/02/04 06:32:07;;;;;;;25.00;3.60;;;7.50;99.90;;;;;;5137479;27;20306;-63
2024/02/04 06:34:32;;;;;;;20.70;2.60;;;7.40;99.90;;;;;;5142602;27;20061;-62
2024/02/04 06:36:58;;;;;;;17.23;3.42;;;7.40;99.90;;;;;;5142322;27;20039;-62
2024/02/04 06:39:24;;;;;;;19.02;3.15;;;7.40;99.90;;;;;;5139634;27;20629;-62
2024/02/04 06:41:50;;;;;;;19.08;3.33;;;7.50;99.90;;;;;;5141421;27;20038;-62
2024/02/04 06:44:15;;;;;;;15.77;3.47;;;7.50;99.90;;;;;;5140379;27;20551;-62
2024/02/04 06:46:41;;;;;;;14.10;2.55;;;7.50;99.90;;;;;;5142834;27;20529;-63
2024/02/04 06:49:07;;;;;;;17.52;3.22;;;7.50;99.90;;;;;;5142640;27;20103;-62
2024/02/04 06:51:33;;;;;;;19.90;3.72;;;7.60;99.90;;;;;;5122839;27;20118;-64
2024/02/04 06:53:59;;;;;;;22.92;4.22;;;7.60;99.90;;;;;;5143622;27;20031;-62
2024/02/04 06:56:25;;;;;;;17.65;3.63;;;7.60;99.90;;;;;;5143462;27;20064;-62
2024/02/04 06:58:50;;;;;;;23.52;3.15;;;7.60;99.90;;;;;;5142443;27;20039;-62
2024/02/04 07:01:16;;;;;;;22.40;3.47;;;7.70;99.90;;;;;;5143899;27;20035;-62
2024/02/04 07:03:42;;;;;;;21.45;3.65;;;7.70;99.90;;;;;;5142859;27;20300;-62
2024/02/04 07:06:08;;;;;;;20.05;3.58;;;7.70;99.90;;;;;;5144272;27;20035;-61
2024/02/04 07:08:34;;;;;;;13.30;2.42;;;7.80;99.90;;;;;;5142706;27;20040;-62
2024/02/04 07:11:00;;;;;;;16.45;3.10;;;7.80;99.90;;;;;;5140367;27;20042;-62
2024/02/04 07:13:25;;;;;;;20.50;3.60;;;7.80;99.90;;;;;;5142247;27;20046;-62
2024/02/04 07:15:51;;;;;;;13.57;3.60;;;7.80;99.90;;;;;;5141349;27;20035;-62
2024/02/04 07:18:21;;;;;;;24.98;3.90;;;7.80;99.90;;;;;;5141684;27;20089;-62
2024/02/04 07:20:47;;;;;;;18.70;3.05;;;7.80;99.90;;;;;;5140687;27;20072;-62
2024/02/04 07:23:13;;;;;;;13.65;3.10;;;7.80;99.90;;;;;;5138265;27;20399;-62
2024/02/04 07:25:39;;;;;;;23.83;3.58;;;7.80;99.90;;;;;;5142277;27;20118;-62
2024/02/04 07:28:04;;;;;;;21.23;3.30;;;7.80;99.90;;;;;;5121198;27;20555;-62
2024/02/04 07:30:30;;;;;;;23.60;4.05;;;7.80;99.90;;;;;;5144549;27;20038;-62
2024/02/04 07:32:56;;;;;;;20.17;3.65;;;7.90;99.90;;;;;;5142809;27;20038;-62
2024/02/04 07:35:21;;;;;;;22.85;4.05;;;7.90;99.90;;;;;;5142957;27;20533;-62
2024/02/04 07:37:47;;;;;;;15.27;3.30;;;7.90;99.90;;;;;;5141893;27;20066;-62
2024/02/04 07:40:13;;;;;;;17.02;2.95;;;7.90;99.90;;;;;;5141055;27;20031;-62
2024/02/04 07:42:39;;;;;;;14.45;2.85;;;7.90;99.90;;;;;;5142389;27;20118;-62
2024/02/04 07:45:08;;;;;;;17.98;3.28;;;8.00;99.90;;;;;;5139465;27;20574;-62
2024/02/04 07:47:35;;;;;;;18.85;4.47;;;7.90;99.90;;;;;;5139711;27;20052;-62
2024/02/04 07:50:00;;;;;;;15.98;3.40;;;7.90;99.90;;;;;;5141978;27;20049;-62
2024/02/04 07:52:26;;;;;;;16.55;3.63;;;8.00;99.90;;;;;;5140650;27;20038;-62
2024/02/04 07:54:52;;;;;;;20.60;3.47;;;7.90;99.90;;;;;;5140780;27;20447;-62
2024/02/04 07:57:18;;;;;;;15.52;2.97;;;8.00;99.90;;;;;;5141686;27;20034;-62
2024/02/04 07:59:43;;;;;;;21.15;2.92;;;8.00;99.90;;;;;;5139985;27;20027;-62
2024/02/04 08:02:09;;;;;;;16.98;2.63;;;8.00;99.90;;;;;;5140403;27;20039;-62
2024/02/04 08:04:35;;;;;;;16.38;3.72;;;8.00;99.90;;;;;;5141286;27;20043;-62
2024/02/04 08:07:01;;;;;;;16.30;2.88;;;8.00;99.90;;;;;;5121159;27;20122;-62
2024/02/04 08:09:27;;;;;;;20.10;3.42;;;8.00;99.90;;;;;;5139163;27;20291;-62
2024/02/04 08:11:53;;;;;;;13.43;3.00;;;8.10;99.90;;;;;;5139431;27;20121;-61
2024/02/04 08:14:18;;;;;;;15.00;2.90;;;8.00;99.90;;;;;;5139154;27;20147;-62
2024/02/04 08:16:46;;;;;;;22.83;3.30;;;8.10;99.90;;;;;;5139628;27;20038;-62
2024/02/04 08:19:13;;;;;;;23.20;4.88;;;8.10;99.90;;;;;;5140848;27;20053;-63
2024/02/04 08:21:39;;;;;;;16.65;3.63;;;8.10;99.90;;;;;;5137316;27;20101;-61
2024/02/04 08:24:05;;;;;;;16.75;3.40;;;8.10;99.90;;;;;;5138973;27;20129;-62
2024/02/04 08:26:31;;;;;;;15.63;2.75;;;8.10;99.90;;;;;;5140789;27;20106;-62
2024/02/04 08:28:57;;;;;;;19.27;3.95;;;8.10;99.90;;;;;;5138585;27;20039;-62
2024/02/04 08:31:22;;;;;;;14.13;2.88;;;8.10;99.90;;;;;;5132307;27;20039;-63
2024/02/04 08:33:48;;;;;;;12.90;3.58;;;8.20;99.90;;;;;;5114667;27;20180;-64
2024/02/04 08:36:14;;;;;;;19.25;3.72;;;8.30;99.90;;;;;;5139113;27;20436;-62
2024/02/04 08:38:39;;;;;;;21.40;4.13;;;8.30;99.90;;;;;;5141211;27;20034;-63
2024/02/04 08:41:07;;;;;;;16.00;3.30;;;8.30;99.90;;;;;;5134798;27;20114;-63
2024/02/04 08:43:33;;;;;;;20.27;3.20;;;8.30;99.90;;;;;;5136871;27;20043;-61
2024/02/04 08:45:58;;;;;;;18.02;2.58;;;8.30;99.90;;;;;;5129798;27;20045;-62
2024/02/04 08:48:24;;;;;;;19.15;3.03;;;8.40;99.90;;;;;;5134773;27;20498;-64
2024/02/04 08:50:50;;;;;;;12.23;3.22;;;8.40;99.90;;;;;;5136432;27;20034;-63
2024/02/04 08:53:15;;;;;;;12.00;2.42;;;8.40;99.90;;;;;;5136050;27;20069;-62
2024/02/04 08:55:41;;;;;;;20.60;3.63;;;8.50;99.90;;;;;;5116362;27;20049;-62
2024/02/04 08:58:07;;;;;;;25.10;3.85;;;8.50;99.90;;;;;;5119844;27;20152;-62
2024/02/04 09:00:33;;;;;;;20.83;3.60;;;8.50;99.90;;;;;;5136605;27;20403;-62
2024/02/04 09:02:58;;;;;;;29.85;4.53;;;8.50;99.90;;;;;;5135549;27;20054;-62
2024/02/04 09:05:24;;;;;;;19.30;4.20;;;8.50;99.90;;;;;;5136453;27;20034;-62
2024/02/04 09:07:50;;;;;;;13.98;2.92;;;8.60;99.90;;;;;;5140426;27;20139;-62
2024/02/04 09:10:16;;;;;;;16.45;3.17;;;8.60;99.90;;;;;;5141406;27;20046;-62
2024/02/04 09:12:42;;;;;;;17.88;4.18;;;8.60;99.90;;;;;;5142706;27;20054;-62
2024/02/04 09:15:08;;;;;;;12.82;3.17;;;8.70;99.90;;;;;;5140623;27;20031;-62
2024/02/04 09:17:34;;;;;;;18.38;3.95;;;8.70;99.90;;;;;;5142947;27;20042;-62
2024/02/04 09:20:00;;;;;;;16.67;3.40;;;8.80;99.90;;;;;;5143345;27;20043;-62
2024/02/04 09:22:26;;;;;;;13.30;2.47;;;8.80;99.90;;;;;;5143007;27;20038;-63
2024/02/04 09:24:52;;;;;;;19.02;3.42;;;8.80;99.90;;;;;;5123934;27;20601;-62
2024/02/04 09:27:18;;;;;;;16.05;3.25;;;8.80;99.90;;;;;;5142067;27;20628;-63
2024/02/04 09:29:43;;;;;;;17.00;3.42;;;8.80;99.90;;;;;;5140106;27;20134;-62
2024/02/04 09:32:09;;;;;;;11.02;2.95;;;8.80;99.90;;;;;;5141472;27;20050;-62
2024/02/04 09:34:35;;;;;;;12.95;3.40;;;8.90;99.90;;;;;;5142352;27;20440;-62
2024/02/04 09:37:02;;;;;;;17.33;3.83;;;9.00;99.90;;;;;;5141567;27;20848;-64
2024/02/04 09:39:29;;;;;;;13.55;2.88;;;9.00;99.90;;;;;;5142880;27;20032;-63
2024/02/04 09:41:56;;;;;;;11.57;2.50;;;9.00;99.90;;;;;;5137852;27;20091;-63
2024/02/04 09:44:24;;;;;;;14.90;3.30;;;9.00;99.90;;;;;;5140464;27;20042;-63
2024/02/04 09:46:49;;;;;;;14.43;2.47;;;9.10;99.90;;;;;;5140288;27;20057;-64
2024/02/04 09:49:15;;;;;;;15.57;3.05;;;9.10;99.90;;;;;;5123758;27;20319;-62
2024/02/04 09:51:42;;;;;;;19.38;3.25;;;9.10;99.90;;;;;;5143743;27;20277;-62
2024/02/04 09:54:10;;;;;;;16.80;3.47;;;9.10;99.90;;;;;;5118370;27;20605;-63
2024/02/04 09:56:37;;;;;;;7.55;2.15;;;9.10;99.90;;;;;;5141500;27;20043;-62
2024/02/04 09:59:04;;;;;;;12.65;2.72;;;9.20;99.90;;;;;;5141465;27;20328;-63
2024/02/04 10:01:32;;;;;;;14.75;3.13;;;9.20;99.90;;;;;;5142091;27;20042;-63
2024/02/04 10:03:58;;;;;;;14.40;3.55;;;9.20;99.90;;;;;;5143269;27;20045;-62
2024/02/04 10:06:24;;;;;;;17.73;2.55;;;9.20;99.90;;;;;;5140832;27;20488;-62
2024/02/04 10:08:51;;;;;;;13.93;3.13;;;9.20;99.90;;;;;;5141262;27;20130;-62
2024/02/04 10:11:17;;;;;;;9.15;2.67;;;9.20;99.90;;;;;;5143935;27;20043;-62
2024/02/04 10:13:47;;;;;;;15.40;3.03;;;9.20;99.90;;;;;;5141120;27;20034;-62
2024/02/04 10:16:14;;;;;;;13.20;2.53;;;9.20;99.90;;;;;;5139888;27;20049;-62
2024/02/04 10:18:49;;;;;;;13.07;3.47;;;9.30;99.90;;;;;;5138292;27;20069;-62
2024/02/04 10:21:23;;;;;;;13.25;2.55;;;9.30;99.90;;;;;;5138955;27;20518;-62
2024/02/04 10:23:49;;;;;;;9.98;2.25;;;9.40;99.90;;;;;;5140028;27;20140;-62
2024/02/04 10:26:16;;;;;;;14.20;2.85;;;9.50;99.90;;;;;;5119802;27;20045;-62
2024/02/04 10:28:44;;;;;;;12.57;2.85;;;9.50;99.90;;;;;;5140386;27;20042;-62
2024/02/04 10:31:10;;;;;;;10.40;2.40;;;9.50;99.90;;;;;;5138944;27;20033;-63
2024/02/04 10:33:37;;;;;;;17.15;2.60;;;9.60;99.90;;;;;;5138625;27;20046;-61
2024/02/04 10:36:04;;;;;;;13.95;2.53;;;9.60;99.90;;;;;;5136536;27;20081;-62
2024/02/04 10:38:30;;;;;;;11.90;2.58;;;9.60;99.90;;;;;;5139704;27;20155;-62
2024/02/04 10:40:59;;;;;;;13.32;2.30;;;9.70;99.90;;;;;;5139137;27;20091;-61
2024/02/04 10:43:28;;;;;;;10.00;2.03;;;9.70;99.90;;;;;;5136089;27;20085;-62
2024/02/04 10:45:56;;;;;;;12.43;2.33;;;10.00;99.90;;;;;;5137121;27;20494;-62
2024/02/04 10:48:26;;;;;;;10.10;2.27;;;9.80;99.90;;;;;;5139979;27;20038;-62
2024/02/04 10:50:56;;;;;;;7.95;1.77;;;9.80;99.90;;;;;;5136968;27;20039;-62
2024/02/04 10:53:22;;;;;;;14.05;2.33;;;9.90;99.90;;;;;;5137268;27;20118;-62
2024/02/04 10:55:52;;;;;;;24.27;2.38;;;9.90;99.90;;;;;;5138329;27;20135;-62
2024/02/04 10:58:19;;;;;;;13.98;2.45;;;9.80;99.90;;;;;;5137546;27;20030;-63
2024/02/04 11:00:45;;;;;;;12.80;2.28;;;9.80;99.90;;;;;;5140096;27;20482;-62
2024/02/04 11:03:12;;;;;;;9.38;2.80;;;9.80;99.90;;;;;;5139532;27;20631;-61
2024/02/04 11:05:42;;;;;;;6.72;1.92;;;9.70;99.90;;;;;;5141224;27;20487;-61
2024/02/04 11:08:10;;;;;;;9.05;2.50;;;9.80;99.90;;;;;;5140410;27;20062;-62
2024/02/04 11:10:38;;;;;;;15.20;2.17;;;9.80;99.90;;;;;;5139713;27;20042;-62
2024/02/04 11:13:06;;;;;;;10.63;2.08;;;9.70;99.90;;;;;;5139353;27;20050;-62
2024/02/04 11:15:37;;;;;;;8.23;1.95;;;9.70;99.90;;;;;;5119209;27;20578;-62
2024/02/04 11:18:14;;;;;;;16.00;2.60;;;9.70;99.90;;;;;;5139683;27;20847;-62
2024/02/04 11:20:52;;;;;;;9.70;1.88;;;9.70;99.90;;;;;;5138601;27;20066;-62
2024/02/04 11:23:43;;;;;;;9.90;2.85;;;9.70;99.90;;;;;;5139870;27;20506;-61
2024/02/04 11:26:09;;;;;;;;;;;9.70;99.90;;;;;;5140705;27;20462;-62
2024/02/04 11:28:36;;;;;;;11.45;2.00;;;9.70;99.90;;;;;;5140708;27;19919;-62
2024/02/04 11:31:02;;;;;;;14.85;2.25;;;9.70;99.90;;;;;;5140950;27;20472;-62
2024/02/04 11:33:28;;;;;;;9.70;2.80;;;9.70;99.90;;;;;;5122642;27;20058;-61
2024/02/04 11:36:03;;;;;;;9.10;2.63;;;9.80;99.90;;;;;;5132994;27;20580;-63
2024/02/04 11:38:36;;;;;;;10.68;1.77;;;9.70;99.90;;;;;;5140813;27;20478;-62
2024/02/04 11:41:06;;;;;;;13.63;2.35;;;9.70;99.90;;;;;;5122944;27;20046;-62
2024/02/04 11:43:38;;;;;;;8.82;1.92;;;9.80;99.90;;;;;;5137828;27;20070;-62
2024/02/04 11:46:04;;;;;;;14.23;2.33;;;9.80;99.90;;;;;;5130522;27;20043;-62
2024/02/04 11:48:32;;;;;;;13.55;1.90;;;9.80;99.90;;;;;;5133597;27;20062;-64
2024/02/04 11:51:00;;;;;;;8.13;2.33;;;9.80;99.90;;;;;;5138310;27;20479;-62
2024/02/04 11:53:30;;;;;;;10.68;2.03;;;9.80;99.90;;;;;;5141876;27;20574;-63
2024/02/04 11:55:55;;;;;;;8.05;2.00;;;9.80;99.90;;;;;;5139814;27;20035;-62
2024/02/04 11:58:22;;;;;;;12.23;2.83;;;9.90;99.90;;;;;;5137952;27;20431;-61
2024/02/04 12:00:49;;;;;;;11.10;2.25;;;10.00;99.90;;;;;;5140092;27;20037;-62
2024/02/04 12:03:15;;;;;;;8.25;2.00;;;10.00;99.90;;;;;;5139614;27;20042;-62
2024/02/04 12:05:41;;;;;;;11.27;2.75;;;10.00;99.90;;;;;;5140164;27;20375;-63
2024/02/04 12:08:08;;;;;;;11.70;2.28;;;10.00;99.90;;;;;;5119635;27;20047;-62
2024/02/04 12:10:35;;;;;;;7.75;2.20;;;10.00;99.90;;;;;;5140716;27;20045;-62
2024/02/04 12:13:09;;;;;;;12.75;2.40;;;10.10;99.90;;;;;;5138244;27;20612;-63
2024/02/04 12:15:35;;;;;;;7.63;2.13;;;10.10;99.90;;;;;;5121962;27;20306;-63
2024/02/04 12:18:14;;;;;;;11.57;2.33;;;10.10;99.90;;;;;;5139889;27;20099;-62
2024/02/04 12:20:40;;;;;;;9.90;2.20;;;10.00;99.90;;;;;;5140587;27;20569;-62
2024/02/04 12:23:07;;;;;;;16.40;2.33;;;10.00;99.90;;;;;;5138884;27;20048;-62
2024/02/04 12:25:33;;;;;;;15.38;2.38;;;10.00;99.90;;;;;;5140780;27;20042;-63
2024/02/04 12:28:02;;;;;;;11.68;1.80;;;10.10;99.90;;;;;;5138955;27;20049;-62
2024/02/04 12:30:29;;;;;;;9.33;2.87;;;10.10;99.90;;;;;;5137456;27;20107;-62
2024/02/04 12:32:59;;;;;;;8.40;1.90;;;10.10;99.90;;;;;;5138138;27;20816;-63
2024/02/04 12:35:25;;;;;;;12.35;2.55;;;10.10;99.90;;;;;;5139738;27;20031;-63
2024/02/04 12:37:52;;;;;;;11.85;1.83;;;10.10;99.90;;;;;;5118332;27;20039;-63
2024/02/04 12:40:25;;;;;;;8.35;1.58;;;10.10;99.90;;;;;;5134367;27;20030;-64
2024/02/04 12:42:58;;;;;;;11.15;1.92;;;10.00;99.90;;;;;;5139737;27;20046;-61
2024/02/04 12:45:25;;;;;;;8.82;1.42;;;10.00;99.90;;;;;;5135081;27;20805;-63